Time;durP1;ratioP1;P1;durP2;ratioP2;P2;SDS_P1;SDS_P2;PMS_P1;PMS_P2;Temp;Humidity;BMP_temperature;BMP_pressure;BME280_temperature;BME280_humidity;BME280_pressure;Samples;Min_cycle;Max_cycle;Signal;HPM_P1;HPM_P2
2022/11/10 00:02:16;;;;;;;;;;;;;;;20.55;58.22;100994.34;5053674;28;1659;-61
2022/11/10 00:05:01;;;;;;;;;;;;;;;20.55;58.30;100995.09;5055040;28;1692;-61
2022/11/10 00:07:46;;;;;;;;;;;;;;;20.53;58.31;101002.91;5058766;28;1616;-61
2022/11/10 00:10:31;;;;;;;;;;;;;;;20.50;58.43;101005.66;5053524;28;1670;-61
2022/11/10 00:13:15;;;;;;;;;;;;;;;20.51;58.25;101004.28;5052189;28;1667;-61
2022/11/10 00:19:05;;;;;;;;;;;;;;;20.55;58.27;101011.59;5051998;28;1680;-61
2022/11/10 00:21:50;;;;;;;;;;;;;;;20.52;58.39;101013.63;5053060;28;1651;-61
2022/11/10 00:24:34;;;;;;;;;;;;;;;20.49;58.18;101015.69;5056063;28;1643;-61
2022/11/10 00:27:19;;;;;;;;;;;;;;;20.47;58.25;101024.19;5055193;28;1637;-61
2022/11/10 00:30:04;;;;;;;;;;;;;;;20.50;58.27;101028.69;5055549;28;1618;-62
2022/11/10 00:32:49;;;;;;;;;;;;;;;20.51;58.20;101024.41;5054530;28;1722;-61
2022/11/10 00:35:34;;;;;;;;;;;;;;;20.50;58.15;101028.69;5055055;28;1981;-61
2022/11/10 00:38:19;;;;;;;;;;;;;;;20.51;58.06;101023.66;5051876;28;1746;-61
2022/11/10 00:41:04;;;;;;;;;;;;;;;20.50;58.05;101034.44;5051677;28;1744;-61
2022/11/10 00:43:49;;;;;;;;;;;;;;;20.50;58.34;101033.66;5058515;28;1726;-61
2022/11/10 00:46:33;;;;;;;;;;;;;;;20.54;58.20;101027.38;5059228;28;1615;-61
2022/11/10 00:49:18;;;;;;;;;;;;;;;20.58;57.87;101030.50;5061085;28;1710;-61
2022/11/10 00:52:03;;;;;;;;;;;;;;;20.57;58.00;101026.88;5054461;28;1713;-61
2022/11/10 00:54:48;;;;;;;;;;;;;;;20.59;58.08;101040.59;5056037;28;1901;-61
2022/11/10 00:57:33;;;;;;;;;;;;;;;20.54;57.96;101050.41;5057905;28;1809;-61
2022/11/10 01:00:18;;;;;;;;;;;;;;;20.56;57.88;101041.88;5059421;28;1644;-61
2022/11/10 01:03:02;;;;;;;;;;;;;;;20.54;58.22;101050.41;5054842;28;1596;-61
2022/11/10 01:05:47;;;;;;;;;;;;;;;20.55;58.08;101041.13;5061032;28;1648;-61
2022/11/10 01:08:32;;;;;;;;;;;;;;;20.55;57.94;101046.13;5054968;28;1744;-61
2022/11/10 01:11:24;;;;;;;;;;;;;;;20.51;57.92;101047.41;5057838;28;1787;-61
2022/11/10 01:14:09;;;;;;;;;;;;;;;20.51;58.22;101041.66;5055713;28;1985;-60
2022/11/10 01:16:54;;;;;;;;;;;;;;;20.51;58.15;101058.94;5055665;28;1719;-60
2022/11/10 01:19:40;;;;;;;;;;;;;;;20.55;57.96;101055.50;5058347;28;1759;-61
2022/11/10 01:22:25;;;;;;;;;;;;;;;20.55;57.93;101066.25;5057833;28;1620;-60
2022/11/10 01:25:10;;;;;;;;;;;;;;;20.53;58.05;101066.94;5068865;28;1614;-61
2022/11/10 01:27:55;;;;;;;;;;;;;;;20.50;58.03;101068.97;5067491;28;1778;-60
2022/11/10 01:30:40;;;;;;;;;;;;;;;20.51;57.67;101072.56;5061985;28;1735;-61
2022/11/10 01:33:24;;;;;;;;;;;;;;;20.52;57.99;101071.16;5062448;28;1670;-61
2022/11/10 01:36:09;;;;;;;;;;;;;;;20.51;57.95;101079.06;5059223;28;1822;-60
2022/11/10 01:38:54;;;;;;;;;;;;;;;20.52;57.90;101082.69;5065721;28;1761;-61
2022/11/10 01:41:39;;;;;;;;;;;;;;;20.51;57.91;101081.94;5062054;28;1644;-61
2022/11/10 01:44:24;;;;;;;;;;;;;;;20.51;57.88;101087.69;5056151;28;1685;-61
2022/11/10 01:47:09;;;;;;;;;;;;;;;20.53;57.86;101089.94;5053425;28;1655;-60
2022/11/10 01:49:54;;;;;;;;;;;;;;;20.53;58.04;101094.94;5054375;28;1627;-61
2022/11/10 01:52:39;;;;;;;;;;;;;;;20.50;57.93;101097.72;5054476;28;1623;-61
2022/11/10 01:55:24;;;;;;;;;;;;;;;20.52;57.95;101105.69;5065660;28;1950;-61
2022/11/10 01:58:09;;;;;;;;;;;;;;;20.50;57.96;101100.59;5061268;28;1659;-61
2022/11/10 02:00:54;;;;;;;;;;;;;;;20.51;57.98;101104.97;5065541;28;1619;-61
2022/11/10 02:03:42;;;;;;;;;;;;;;;20.52;57.70;101105.69;5069952;28;1687;-61
2022/11/10 02:06:28;;;;;;;;;;;;;;;20.50;57.83;101112.09;5072437;28;1728;-60
2022/11/10 02:09:14;;;;;;;;;;;;;;;20.48;57.95;101117.75;5057833;28;1656;-61
2022/11/10 02:11:59;;;;;;;;;;;;;;;20.52;57.68;101117.19;5062662;28;1863;-61
2022/11/10 02:14:43;;;;;;;;;;;;;;;20.51;57.86;101122.22;5064077;28;1910;-61
2022/11/10 02:17:28;;;;;;;;;;;;;;;20.50;57.86;101131.47;5071816;28;1612;-61
2022/11/10 02:20:14;;;;;;;;;;;;;;;20.49;57.92;101130.00;5070879;28;1683;-61
2022/11/10 02:23:09;;;;;;;;;;;;;;;20.47;57.99;101127.75;5065497;28;1710;-61
2022/11/10 02:25:54;;;;;;;;;;;;;;;20.46;57.70;101132.03;5065251;28;1775;-61
2022/11/10 02:28:40;;;;;;;;;;;;;;;20.44;58.03;101139.81;5055701;28;1627;-61
2022/11/10 02:31:25;;;;;;;;;;;;;;;20.42;58.19;101142.59;5057806;28;1654;-61
2022/11/10 02:34:09;;;;;;;;;;;;;;;20.45;57.78;101136.28;5060039;28;1918;-61
2022/11/10 02:36:54;;;;;;;;;;;;;;;20.46;57.95;101143.53;5061435;28;1922;-61
2022/11/10 02:39:39;;;;;;;;;;;;;;;20.47;57.86;101150.78;5059102;28;1675;-61
2022/11/10 02:42:24;;;;;;;;;;;;;;;20.47;57.86;101150.78;5054716;28;1668;-61
2022/11/10 02:45:09;;;;;;;;;;;;;;;20.48;57.90;101155.16;5058400;28;1688;-60
2022/11/10 02:47:54;;;;;;;;;;;;;;;20.48;57.58;101152.28;5058766;28;1711;-61
2022/11/10 02:50:38;;;;;;;;;;;;;;;20.48;57.71;101152.28;5055327;28;1636;-61
2022/11/10 02:53:23;;;;;;;;;;;;;;;20.47;57.84;101162.28;5058749;28;1624;-60
2022/11/10 02:56:09;;;;;;;;;;;;;;;20.48;57.82;101158.03;5059255;28;1910;-61
2022/11/10 02:58:53;;;;;;;;;;;;;;;20.47;57.61;101162.28;5058305;28;1627;-61
2022/11/10 03:01:39;;;;;;;;;;;;;;;20.47;57.67;101161.53;5063039;28;1643;-61
2022/11/10 03:04:24;;;;;;;;;;;;;;;20.47;57.78;101173.06;5058569;28;1742;-61
2022/11/10 03:07:09;;;;;;;;;;;;;;;20.45;57.65;101165.06;5059892;28;1639;-61
2022/11/10 03:09:54;;;;;;;;;;;;;;;20.45;57.67;101170.81;5064101;28;1714;-63
2022/11/10 03:12:39;;;;;;;;;;;;;;;20.46;57.56;101180.94;5061939;28;1711;-63
2022/11/10 03:15:25;;;;;;;;;;;;;;;20.44;57.71;101180.84;5064576;28;1918;-63
2022/11/10 03:18:10;;;;;;;;;;;;;;;20.45;57.71;101199.56;5064195;28;1651;-63
2022/11/10 03:20:54;;;;;;;;;;;;;;;20.46;57.70;101195.31;5059697;28;1619;-62
2022/11/10 03:23:39;;;;;;;;;;;;;;;20.43;57.67;101201.59;5061043;28;1603;-62
2022/11/10 03:26:24;;;;;;;;;;;;;;;20.42;57.76;101189.34;5064232;28;1647;-63
2022/11/10 03:29:09;;;;;;;;;;;;;;;20.43;57.76;101208.13;5062974;28;1623;-63
2022/11/10 03:31:54;;;;;;;;;;;;;;;20.41;57.85;101215.88;5067755;28;1615;-63
2022/11/10 03:34:39;;;;;;;;;;;;;;;20.39;57.78;101221.56;5062901;28;1910;-63
2022/11/10 03:37:23;;;;;;;;;;;;;;;20.38;57.79;101225.78;5068456;28;1948;-63
2022/11/10 03:40:08;;;;;;;;;;;;;;;20.39;57.89;101236.66;5061420;28;1655;-63
2022/11/10 03:42:53;;;;;;;;;;;;;;;20.40;57.84;101225.91;5068982;28;1666;-63
2022/11/10 03:45:38;;;;;;;;;;;;;;;20.38;57.79;101226.53;5070973;28;1678;-63
2022/11/10 03:48:23;;;;;;;;;;;;;;;20.39;57.93;101242.41;5066221;28;1651;-63
2022/11/10 03:51:08;;;;;;;;;;;;;;;20.40;57.85;101232.41;5063720;28;1646;-63
2022/11/10 03:53:53;;;;;;;;;;;;;;;20.41;57.72;101233.91;5068312;28;1674;-63
2022/11/10 03:56:38;;;;;;;;;;;;;;;20.41;57.79;101245.41;5067744;28;1922;-63
2022/11/10 03:59:23;;;;;;;;;;;;;;;20.43;57.64;101239.75;5070746;28;1728;-62
2022/11/10 04:02:07;;;;;;;;;;;;;;;20.45;57.57;101247.72;5062628;28;1690;-63
2022/11/10 04:11:03;;;;;;;;;;;;;;;20.47;57.57;101260.09;5062844;28;1764;-63
2022/11/10 04:16:52;;;;;;;;;;;;;;;20.46;57.55;101273.00;5072727;28;1670;-63
2022/11/10 04:19:37;;;;;;;;;;;;;;;20.47;57.76;101277.34;5072522;28;1732;-63
2022/11/10 04:25:26;;;;;;;;;;;;;;;20.45;57.68;101288.75;5071779;28;1675;-62
2022/11/10 04:28:11;;;;;;;;;;;;;;;20.47;57.80;101282.38;5076441;28;1770;-63
2022/11/10 04:30:56;;;;;;;;;;;;;;;20.46;57.68;101296.00;5069204;28;1683;-63
2022/11/10 04:33:41;;;;;;;;;;;;;;;20.45;57.82;101291.63;5074397;28;1667;-62
2022/11/10 04:36:26;;;;;;;;;;;;;;;20.47;57.83;101294.59;5075270;28;2019;-63
2022/11/10 04:39:11;;;;;;;;;;;;;;;20.47;57.77;101300.38;5069131;28;1672;-63
2022/11/10 04:41:56;;;;;;;;;;;;;;;20.48;57.60;101296.13;5061813;28;3638;-63
2022/11/10 04:44:47;;;;;;;;;;;;;;;20.50;57.53;101299.09;5064890;28;1603;-63
2022/11/10 04:47:32;;;;;;;;;;;;;;;20.50;57.59;101301.97;5062396;28;1777;-62
2022/11/10 04:50:17;;;;;;;;;;;;;;;20.51;57.54;101300.59;5064993;28;1826;-61
2022/11/10 04:53:01;;;;;;;;;;;;;;;20.53;57.61;101302.09;5062977;28;1635;-60
2022/11/10 04:55:46;;;;;;;;;;;;;;;20.53;57.50;101296.34;5060818;28;1963;-61
2022/11/10 04:58:31;;;;;;;;;;;;;;;20.52;57.64;101301.31;5075652;28;1715;-61
2022/11/10 05:01:16;;;;;;;;;;;;;;;20.51;57.69;101311.34;5068582;28;1659;-61
2022/11/10 05:04:04;;;;;;;;;;;;;;;20.50;57.70;101304.84;5058361;28;1635;-61
2022/11/10 05:06:49;;;;;;;;;;;;;;;20.50;57.53;101304.84;5058499;28;1631;-60
2022/11/10 05:09:34;;;;;;;;;;;;;;;20.50;57.70;101316.38;5057660;28;1659;-61
2022/11/10 05:12:19;;;;;;;;;;;;;;;20.51;57.64;101325.75;5051851;28;1714;-60
2022/11/10 05:15:06;;;;;;;;;;;;;;;20.49;57.63;101326.38;5056674;28;1988;-61
2022/11/10 05:17:52;;;;;;;;;;;;;;;20.50;57.69;101330.75;5057387;28;1707;-60
2022/11/10 05:20:37;;;;;;;;;;;;;;;20.49;57.78;101332.13;5052724;28;1662;-61
2022/11/10 05:23:37;;;;;;;;;;;;;;;20.49;57.57;101342.88;5059330;28;1834;-61
2022/11/10 05:26:22;;;;;;;;;;;;;;;20.50;57.65;101345.13;5064189;28;1631;-61
2022/11/10 05:29:07;;;;;;;;;;;;;;;20.51;57.70;101358.13;5061953;28;1636;-61
2022/11/10 05:31:51;;;;;;;;;;;;;;;20.51;57.59;101363.88;5059783;28;1918;-61
2022/11/10 05:34:36;;;;;;;;;;;;;;;20.48;57.55;101367.31;5056716;28;2350;-61
2022/11/10 05:37:21;;;;;;;;;;;;;;;20.53;57.67;101376.91;5054299;28;2455;-61
2022/11/10 05:40:06;;;;;;;;;;;;;;;20.55;57.57;101374.09;5052000;28;2537;-61
2022/11/10 05:42:51;;;;;;;;;;;;;;;20.58;57.61;101384.38;5052357;28;2485;-61
2022/11/10 05:45:37;;;;;;;;;;;;;;;20.59;57.54;101380.88;5054772;28;2256;-61
2022/11/10 05:48:21;;;;;;;;;;;;;;;20.58;57.46;101398.78;5053511;28;2414;-60
2022/11/10 05:51:06;;;;;;;;;;;;;;;20.58;57.54;101401.66;5054038;28;2596;-60
2022/11/10 05:53:51;;;;;;;;;;;;;;;20.60;57.54;101410.38;5065515;28;2434;-61
2022/11/10 05:56:36;;;;;;;;;;;;;;;20.60;57.67;101422.66;5063627;28;2411;-61
2022/11/10 05:59:21;;;;;;;;;;;;;;;20.59;57.69;101426.91;5064587;28;2632;-60
2022/11/10 06:02:05;;;;;;;;;;;;;;;20.59;57.73;101424.03;5065441;28;1567;-60
2022/11/10 06:04:50;;;;;;;;;;;;;;;20.62;57.72;101430.66;5067528;28;2439;-59
2022/11/10 06:07:36;;;;;;;;;;;;;;;20.60;58.17;101428.41;5068337;28;1572;-59
2022/11/10 06:10:21;;;;;;;;;;;;;;;20.61;58.08;101432.00;5061611;28;1608;-59
2022/11/10 06:13:06;;;;;;;;;;;;;;;20.63;58.03;101444.38;5065104;28;1677;-60
2022/11/10 06:15:51;;;;;;;;;;;;;;;20.64;58.54;101448.75;5071544;28;1977;-59
2022/11/10 06:18:36;;;;;;;;;;;;;;;20.65;58.11;101452.38;5065773;28;1571;-59
2022/11/10 06:21:21;;;;;;;;;;;;;;;20.67;58.75;101466.88;5070788;28;1627;-59
2022/11/10 06:24:06;;;;;;;;;;;;;;;20.67;58.59;101466.88;5067133;28;1560;-59
2022/11/10 06:26:51;;;;;;;;;;;;;;;20.67;58.46;101472.66;5069417;28;1615;-59
2022/11/10 06:29:36;;;;;;;;;;;;;;;20.68;58.64;101474.13;5069900;28;1653;-59
2022/11/10 06:32:21;;;;;;;;;;;;;;;20.66;58.81;101479.78;5070104;28;1631;-59
2022/11/10 06:35:06;;;;;;;;;;;;;;;20.66;58.94;101489.16;5057818;28;1981;-61
2022/11/10 06:37:58;;;;;;;;;;;;;;;20.60;59.13;101502.47;5056400;28;1489;-59
2022/11/10 06:40:43;;;;;;;;;;;;;;;20.64;59.23;101502.69;5057693;28;3089;-60
2022/11/10 06:43:27;;;;;;;;;;;;;;;20.65;58.83;101516.44;5061687;28;2965;-57
2022/11/10 06:46:12;;;;;;;;;;;;;;;20.67;58.93;101530.94;5066705;28;1627;-58
2022/11/10 06:48:57;;;;;;;;;;;;;;;20.65;59.03;101538.72;5061941;28;2800;-59
2022/11/10 06:51:42;;;;;;;;;;;;;;;20.65;59.32;101553.09;5065486;28;1536;-59
2022/11/10 06:54:27;;;;;;;;;;;;;;;20.65;59.31;101544.47;5066945;28;1691;-59
2022/11/10 06:57:12;;;;;;;;;;;;;;;20.65;59.45;101548.09;5068474;28;1977;-59
2022/11/10 06:59:57;;;;;;;;;;;;;;;20.64;59.46;101548.75;5065339;28;1579;-59
2022/11/10 07:02:42;;;;;;;;;;;;;;;20.65;59.29;101555.97;5067936;28;1782;-59
2022/11/10 07:05:26;;;;;;;;;;;;;;;20.66;59.45;101563.22;5069115;28;1674;-59
2022/11/10 07:08:15;;;;;;;;;;;;;;;20.69;59.05;101573.47;5069078;28;1631;-59
2022/11/10 07:11:00;;;;;;;;;;;;;;;20.65;59.22;101579.75;5065922;28;1707;-59
2022/11/10 07:13:44;;;;;;;;;;;;;;;20.65;59.41;101584.75;5069492;28;1649;-59
2022/11/10 07:16:29;;;;;;;;;;;;;;;20.66;59.26;101586.25;5066372;28;1910;-59
2022/11/10 07:19:14;;;;;;;;;;;;;;;20.67;59.41;101587.75;5069916;28;1656;-59
2022/11/10 07:21:59;;;;;;;;;;;;;;;20.66;59.22;101594.88;5067383;28;2215;-59
2022/11/10 07:24:44;;;;;;;;;;;;;;;20.64;59.32;101594.78;5066819;28;1615;-59
2022/11/10 07:27:29;;;;;;;;;;;;;;;20.62;59.42;101597.56;5068242;28;1896;-59
2022/11/10 07:30:13;;;;;;;;;;;;;;;20.60;59.42;101601.06;5069340;28;1623;-59
2022/11/10 07:32:58;;;;;;;;;;;;;;;20.61;59.31;101619.06;5062936;28;1572;-59
2022/11/10 07:35:44;;;;;;;;;;;;;;;20.61;59.50;101613.31;5065214;28;1922;-59
2022/11/10 07:38:29;;;;;;;;;;;;;;;20.62;59.43;101623.44;5058346;28;1600;-59
2022/11/10 07:41:14;;;;;;;;;;;;;;;20.61;59.38;101636.31;5054095;28;1711;-59
2022/11/10 07:43:59;;;;;;;;;;;;;;;20.61;59.40;101639.94;5056496;28;1620;-59
2022/11/10 07:46:44;;;;;;;;;;;;;;;20.61;59.17;101636.31;5053498;28;1623;-59
2022/11/10 07:49:28;;;;;;;;;;;;;;;20.61;59.17;101642.09;5049526;28;1706;-59
2022/11/10 07:52:13;;;;;;;;;;;;;;;20.61;59.33;101647.84;5054906;28;1671;-59
2022/11/10 07:54:58;;;;;;;;;;;;;;;20.60;59.35;101646.34;5059016;28;1595;-59
2022/11/10 07:57:43;;;;;;;;;;;;;;;20.58;59.37;101654.84;5055368;28;1702;-59
2022/11/10 08:00:28;;;;;;;;;;;;;;;20.59;59.21;101650.59;5057543;28;1559;-59
2022/11/10 08:03:14;;;;;;;;;;;;;;;20.58;59.22;101661.34;5057065;28;1644;-59
2022/11/10 08:05:59;;;;;;;;;;;;;;;20.58;59.21;101658.47;5055071;28;1776;-59
2022/11/10 08:08:46;;;;;;;;;;;;;;;20.50;59.53;101667.38;5050866;28;1607;-59
2022/11/10 08:11:31;;;;;;;;;;;;;;;20.51;59.49;101668.09;5054286;28;1671;-59
2022/11/10 08:14:16;;;;;;;;;;;;;;;20.51;59.57;101679.63;5049663;28;1646;-59
2022/11/10 08:17:01;;;;;;;;;;;;;;;20.51;59.32;101679.63;5055423;28;1906;-59
2022/11/10 08:19:45;;;;;;;;;;;;;;;20.51;59.30;101679.63;5054307;28;1592;-59
2022/11/10 08:22:30;;;;;;;;;;;;;;;20.53;59.30;101681.88;5054105;28;2176;-59
2022/11/10 08:25:15;;;;;;;;;;;;;;;20.54;59.37;101694.88;5047555;28;1647;-59
2022/11/10 08:28:01;;;;;;;;;;;;;;;20.55;59.53;101687.72;5051258;28;1640;-59
2022/11/10 08:30:46;;;;;;;;;;;;;;;20.57;59.19;101688.66;5052790;28;1571;-59
2022/11/10 08:33:31;;;;;;;;;;;;;;;20.58;59.15;101692.28;5052779;28;1599;-59
2022/11/10 08:36:16;;;;;;;;;;;;;;;20.60;59.16;101692.38;5054807;28;1910;-59
2022/11/10 08:39:00;;;;;;;;;;;;;;;20.59;59.14;101703.16;5052340;28;1655;-59
2022/11/10 08:41:45;;;;;;;;;;;;;;;20.60;59.17;101698.88;5046964;28;1631;-59
2022/11/10 08:44:30;;;;;;;;;;;;;;;20.59;59.02;101703.16;5056086;28;1620;-59
2022/11/10 08:47:15;;;;;;;;;;;;;;;20.60;59.13;101712.53;5049131;28;1592;-59
2022/11/10 08:50:00;;;;;;;;;;;;;;;20.60;59.18;101715.41;5049138;28;1568;-59
2022/11/10 08:52:44;;;;;;;;;;;;;;;20.59;58.99;101728.28;5050313;28;1564;-59
2022/11/10 08:55:29;;;;;;;;;;;;;;;20.57;59.28;101728.94;5048637;28;1650;-59
2022/11/10 08:58:18;;;;;;;;;;;;;;;20.60;59.17;101735.56;5059578;28;1559;-59
2022/11/10 09:01:07;;;;;;;;;;;;;;;20.59;59.04;101751.31;5055537;28;1571;-59
2022/11/10 09:03:52;;;;;;;;;;;;;;;20.59;59.02;101757.84;5056133;28;1595;-59
2022/11/10 09:07:07;;;;;;;;;;;;;;;20.57;58.85;101759.81;5059886;28;2839;-59
2022/11/10 09:09:53;;;;;;;;;;;;;;;20.06;55.21;101763.22;5049627;28;2934;-61
2022/11/10 09:12:51;;;;;;;;;;;;;;;20.01;54.11;101761.47;5057175;28;2817;-60
2022/11/10 09:15:36;;;;;;;;;;;;;;;19.88;55.37;101777.19;5065958;28;2915;-59
2022/11/10 09:18:21;;;;;;;;;;;;;;;19.62;54.28;101777.00;5073658;28;2820;-61
2022/11/10 09:21:10;;;;;;;;;;;;;;;19.20;54.34;101758.50;5064597;28;2887;-58
2022/11/10 09:23:55;;;;;;;;;;;;;;;19.58;54.57;101773.84;5060287;28;2776;-59
2022/11/10 09:26:44;;;;;;;;;;;;;;;19.25;54.59;101771.00;5057337;28;2807;-58
2022/11/10 09:29:28;;;;;;;;;;;;;;;19.08;54.37;101780.69;5062162;28;3051;-57
2022/11/10 09:32:13;;;;;;;;;;;;;;;19.35;54.37;101786.03;5068358;28;2956;-58
2022/11/10 09:34:58;;;;;;;;;;;;;;;19.65;54.77;101784.38;5068034;28;2740;-57
2022/11/10 09:37:43;;;;;;;;;;;;;;;19.30;54.76;101790.00;5067721;28;2887;-58
2022/11/10 09:40:49;;;;;;;;;;;;;;;20.60;53.81;101788.09;5055535;28;2986;-73
2022/11/10 09:43:45;;;;;;;;;;;;;;;20.01;52.04;101793.09;5052302;28;3063;-63
2022/11/10 09:46:37;;;;;;;;;;;;;;;19.08;54.37;101797.91;5055374;28;3186;-64
2022/11/10 09:49:36;;;;;;;;;;;;;;;19.41;55.30;101800.78;5070392;28;2835;-75
2022/11/10 09:52:22;;;;;;;;;;;;;;;20.04;55.13;101801.22;5063534;28;2905;-72
2022/11/10 09:55:14;;;;;;;;;;;;;;;19.76;54.29;101810.91;5056940;28;3118;-73
2022/11/10 09:57:59;;;;;;;;;;;;;;;20.17;53.21;101801.97;5058578;28;2995;-72
2022/11/10 10:00:47;;;;;;;;;;;;;;;20.04;52.64;101801.22;5063177;28;2942;-72
2022/11/10 10:03:32;;;;;;;;;;;;;;;20.38;52.67;101798.22;5065050;28;3093;-71
2022/11/10 10:06:18;;;;;;;;;;;;;;;19.93;52.68;101793.34;5060174;28;2972;-71
2022/11/10 10:09:10;;;;;;;;;;;;;;;20.19;52.85;101793.47;5056815;28;3238;-72
2022/11/10 10:12:02;;;;;;;;;;;;;;;20.24;52.87;101812.47;5057267;28;3069;-73
2022/11/10 10:15:06;;;;;;;;;;;;;;;20.45;53.06;101802.97;5055473;28;4557;-65
2022/11/10 10:17:54;;;;;;;;;;;;;;;20.39;52.62;101805.50;5060793;28;2930;-75
2022/11/10 10:20:41;;;;;;;;;;;;;;;19.35;52.48;101809.00;5059721;28;3008;-70
2022/11/10 10:23:32;;;;;;;;;;;;;;;19.59;51.74;101809.84;5059074;28;2936;-78
2022/11/10 10:26:37;;;;;;;;;;;;;;;19.00;51.23;101815.31;5065448;28;2919;-78
2022/11/10 10:29:23;;;;;;;;;;;;;;;19.66;51.09;101814.63;5065441;28;2988;-79
2022/11/10 10:32:10;;;;;;;;;;;;;;;19.97;50.12;101813.69;5070976;28;2747;-78
2022/11/10 10:34:56;;;;;;;;;;;;;;;19.84;50.20;101817.19;5055510;28;4418;-75
2022/11/10 10:37:42;;;;;;;;;;;;;;;20.01;50.54;101825.47;5062033;28;4482;-71
2022/11/10 10:40:28;;;;;;;;;;;;;;;20.11;49.99;101827.47;5068834;28;3211;-70
2022/11/10 10:43:12;;;;;;;;;;;;;;;20.68;48.86;101828.13;5063395;28;2968;-70
2022/11/10 10:46:10;;;;;;;;;;;;;;;20.87;48.88;101819.22;5066874;28;2988;-69
2022/11/10 10:49:14;;;;;;;;;;;;;;;21.04;49.97;101820.16;5065797;28;2979;-68
2022/11/10 10:52:16;;;;;;;;;;;;;;;21.18;50.12;101823.13;5068987;28;2968;-70
2022/11/10 10:55:04;;;;;;;;;;;;;;;21.00;50.48;101837.19;5056736;28;3631;-69
2022/11/10 10:57:50;;;;;;;;;;;;;;;21.09;50.54;101833.41;5048355;28;3384;-69
2022/11/10 11:00:42;;;;;;;;;;;;;;;21.18;50.91;101826.75;5058903;28;3012;-69
2022/11/10 11:03:27;;;;;;;;;;;;;;;21.29;51.52;101817.31;5051041;28;2992;-69
2022/11/10 11:06:12;;;;;;;;;;;;;;;21.26;51.74;101821.47;5055814;28;3620;-69
2022/11/10 11:09:13;;;;;;;;;;;;;;;21.40;52.04;101823.69;5057738;28;4603;-68
2022/11/10 11:11:59;;;;;;;;;;;;;;;21.44;52.10;101821.03;5065004;28;2988;-66
2022/11/10 11:14:44;;;;;;;;;;;;;;;21.38;52.79;101829.34;5064527;28;2959;-67
2022/11/10 11:17:30;;;;;;;;;;;;;;;21.47;52.69;101826.31;5060233;28;3110;-66
2022/11/10 11:20:15;;;;;;;;;;;;;;;21.52;52.36;101833.03;5056041;28;3168;-66
2022/11/10 11:23:02;;;;;;;;;;;;;;;21.55;52.72;101837.53;5047445;28;2921;-67
2022/11/10 11:25:47;;;;;;;;;;;;;;;21.49;52.89;101823.53;5059929;28;2968;-68
2022/11/10 11:28:34;;;;;;;;;;;;;;;21.32;52.97;101833.34;5048872;28;3106;-68
2022/11/10 11:31:22;;;;;;;;;;;;;;;21.37;53.37;101830.69;5047795;28;5624;-67
2022/11/10 11:34:10;;;;;;;;;;;;;;;21.40;53.36;101830.22;5057156;28;3052;-67
2022/11/10 11:37:12;;;;;;;;;;;;;;;21.34;53.28;101824.81;5051002;28;3199;-69
2022/11/10 11:40:09;;;;;;;;;;;;;;;21.57;53.20;101823.25;5054950;28;5352;-68
2022/11/10 11:43:15;;;;;;;;;;;;;;;21.78;53.09;101827.25;5049300;28;3044;-69
2022/11/10 11:46:05;;;;;;;;;;;;;;;21.85;52.80;101829.09;5054487;28;2940;-67
2022/11/10 11:48:54;;;;;;;;;;;;;;;21.75;52.93;101830.03;5053496;28;3174;-69
2022/11/10 11:51:44;;;;;;;;;;;;;;;21.71;53.29;101841.34;5050008;28;4685;-65
2022/11/10 11:54:35;;;;;;;;;;;;;;;21.72;53.25;101839.22;5052824;28;3260;-64
2022/11/10 11:57:25;;;;;;;;;;;;;;;21.72;52.97;101839.97;5056737;28;3062;-65
2022/11/10 12:00:11;;;;;;;;;;;;;;;21.58;52.97;101836.28;5052764;28;3331;-66
2022/11/10 12:03:15;;;;;;;;;;;;;;;21.65;53.43;101840.25;5061825;28;3214;-66
2022/11/10 12:06:11;;;;;;;;;;;;;;;21.77;53.52;101834.44;5070664;28;1559;-65
2022/11/10 12:08:59;;;;;;;;;;;;;;;21.92;53.70;101839.59;5063431;28;3083;-65
2022/11/10 12:12:01;;;;;;;;;;;;;;;21.92;53.26;101845.34;5064825;28;3099;-61
2022/11/10 12:14:48;;;;;;;;;;;;;;;21.87;54.08;101837.88;5051393;28;4434;-60
2022/11/10 12:17:42;;;;;;;;;;;;;;;21.90;54.45;101843.13;5054746;28;3294;-63
2022/11/10 12:20:46;;;;;;;;;;;;;;;21.94;54.03;101846.25;5053388;28;2858;-67
2022/11/10 12:23:37;;;;;;;;;;;;;;;22.06;53.80;101854.81;5051614;28;3327;-67
2022/11/10 12:26:42;;;;;;;;;;;;;;;22.12;53.50;101852.25;5055925;28;3506;-69
2022/11/10 12:29:30;;;;;;;;;;;;;;;22.07;53.36;101850.53;5054097;28;3079;-66
2022/11/10 12:32:30;;;;;;;;;;;;;;;21.88;53.89;101863.19;5060082;28;2959;-66
2022/11/10 12:35:21;;;;;;;;;;;;;;;21.84;53.58;101859.34;5048631;28;4565;-66
2022/11/10 12:38:07;;;;;;;;;;;;;;;21.82;53.43;101870.75;5058826;28;3059;-67
2022/11/10 12:41:00;;;;;;;;;;;;;;;21.83;52.97;101860.69;5052285;28;4417;-68
2022/11/10 12:43:57;;;;;;;;;;;;;;;21.80;52.81;101867.75;5055666;28;3125;-68
2022/11/10 12:46:42;;;;;;;;;;;;;;;21.77;53.09;101869.03;5058163;28;3169;-66
2022/11/10 12:49:32;;;;;;;;;;;;;;;21.69;52.53;101875.84;5059110;28;3046;-66
2022/11/10 12:52:19;;;;;;;;;;;;;;;21.72;52.39;101871.69;5060241;28;2994;-67
2022/11/10 12:55:04;;;;;;;;;;;;;;;21.86;51.94;101877.50;5061912;28;3072;-67
2022/11/10 12:57:49;;;;;;;;;;;;;;;21.80;51.87;101877.13;5054191;28;4255;-68
2022/11/10 13:00:36;;;;;;;;;;;;;;;21.83;51.52;101883.78;5061770;28;3147;-67
2022/11/10 13:03:35;;;;;;;;;;;;;;;21.80;51.58;101890.81;5057796;28;3000;-67
2022/11/10 13:06:27;;;;;;;;;;;;;;;21.81;51.69;101893.06;5060287;28;4648;-68
2022/11/10 13:09:31;;;;;;;;;;;;;;;21.83;51.31;101895.31;5060708;28;3029;-67
2022/11/10 13:12:20;;;;;;;;;;;;;;;21.89;51.21;101901.41;5059987;28;2983;-69
2022/11/10 13:15:25;;;;;;;;;;;;;;;22.04;52.10;101903.00;5062280;28;3129;-69
2022/11/10 13:18:10;;;;;;;;;;;;;;;22.09;52.60;101908.34;5050057;28;3026;-67
2022/11/10 13:20:55;;;;;;;;;;;;;;;22.09;52.44;101905.44;5058629;28;3359;-67
2022/11/10 13:23:43;;;;;;;;;;;;;;;21.98;53.29;101909.16;5068808;28;2558;-66
2022/11/10 13:26:43;;;;;;;;;;;;;;;21.97;53.63;101910.53;5063771;28;3019;-66
2022/11/10 13:29:33;;;;;;;;;;;;;;;21.95;53.59;101914.06;5069169;28;2986;-69
2022/11/10 13:32:21;;;;;;;;;;;;;;;21.90;53.75;101917.34;5065892;28;4798;-69
2022/11/10 13:35:25;;;;;;;;;;;;;;;21.88;54.01;101925.88;5068379;28;4129;-69
2022/11/10 13:38:28;;;;;;;;;;;;;;;21.92;54.04;101928.97;5069090;28;4066;-69
2022/11/10 13:41:21;;;;;;;;;;;;;;;21.84;54.17;101926.41;5073119;28;1512;-70
2022/11/10 13:44:18;;;;;;;;;;;;;;;21.90;54.02;101923.13;5074284;28;1520;-70
2022/11/10 13:47:06;;;;;;;;;;;;;;;21.82;54.52;101919.75;5074912;28;1627;-70
2022/11/10 13:49:50;;;;;;;;;;;;;;;21.78;54.44;101920.28;5072456;28;4109;-68
2022/11/10 13:52:43;;;;;;;;;;;;;;;21.87;54.68;101910.69;5068051;28;1560;-69
2022/11/10 13:55:39;;;;;;;;;;;;;;;21.74;54.85;101912.16;5053945;28;3394;-68
2022/11/10 13:58:24;;;;;;;;;;;;;;;21.72;54.61;101919.94;5070491;28;2700;-71
2022/11/10 14:01:16;;;;;;;;;;;;;;;21.73;55.19;101927.94;5072591;28;1599;-71
2022/11/10 14:04:01;;;;;;;;;;;;;;;21.73;55.30;101930.81;5072105;28;2626;-71
2022/11/10 14:06:47;;;;;;;;;;;;;;;21.71;55.54;101936.47;5064793;28;3278;-70
2022/11/10 14:09:38;;;;;;;;;;;;;;;21.69;55.38;101945.03;5051650;28;3151;-68
2022/11/10 14:12:29;;;;;;;;;;;;;;;21.71;55.28;101948.00;5060218;28;3842;-72
2022/11/10 14:15:28;;;;;;;;;;;;;;;21.71;55.45;101947.25;5073413;28;3044;-70
2022/11/10 14:18:16;;;;;;;;;;;;;;;21.66;55.28;101963.56;5066740;28;3251;-71
2022/11/10 14:21:01;;;;;;;;;;;;;;;21.64;55.65;101960.56;5061482;28;3090;-70
2022/11/10 14:23:50;;;;;;;;;;;;;;;21.71;55.77;101967.44;5057440;28;2833;-67
2022/11/10 14:26:40;;;;;;;;;;;;;;;21.73;55.64;101968.31;5058974;28;4243;-70
2022/11/10 14:29:26;;;;;;;;;;;;;;;21.77;55.26;101967.06;5066173;28;2685;-71
2022/11/10 14:32:17;;;;;;;;;;;;;;;21.74;55.50;101960.41;5065340;28;2301;-71
2022/11/10 14:35:01;;;;;;;;;;;;;;;21.79;55.65;101965.03;5069778;28;1600;-70
2022/11/10 14:37:46;;;;;;;;;;;;;;;21.81;55.46;101973.06;5054446;28;2909;-67
2022/11/10 14:40:31;;;;;;;;;;;;;;;21.79;55.79;101975.81;5051604;28;3683;-67
2022/11/10 14:43:25;;;;;;;;;;;;;;;21.73;55.79;101984.84;5055917;28;3514;-67
2022/11/10 14:46:11;;;;;;;;;;;;;;;21.89;55.43;101987.94;5055248;28;3047;-66
2022/11/10 14:48:57;;;;;;;;;;;;;;;21.96;55.26;101998.44;5061517;28;2803;-66